sensor_id;sensor_type;location;lat;lon;timestamp;P1;durP1;ratioP1;P2;durP2;ratioP2
44536;SDS011;30245;51.966;6.292;2022-07-23T00:01:59;2.00;;;0.38;;
44536;SDS011;30245;51.966;6.292;2022-07-23T00:04:24;0.90;;;0.40;;
44536;SDS011;30245;51.966;6.292;2022-07-23T00:06:50;0.90;;;0.50;;
44536;SDS011;30245;51.966;6.292;2022-07-23T00:09:16;2.63;;;0.30;;
44536;SDS011;30245;51.966;6.292;2022-07-23T00:11:41;1.25;;;0.50;;
44536;SDS011;30245;51.966;6.292;2022-07-23T00:14:07;1.10;;;0.40;;
44536;SDS011;30245;51.966;6.292;2022-07-23T00:16:33;1.17;;;0.60;;
44536;SDS011;30245;51.966;6.292;2022-07-23T00:18:58;2.47;;;0.50;;
44536;SDS011;30245;51.966;6.292;2022-07-23T00:21:26;0.55;;;0.30;;
44536;SDS011;30245;51.966;6.292;2022-07-23T00:23:52;2.30;;;0.50;;
44536;SDS011;30245;51.966;6.292;2022-07-23T00:26:17;0.60;;;0.30;;
44536;SDS011;30245;51.966;6.292;2022-07-23T00:28:43;0.65;;;0.35;;
44536;SDS011;30245;51.966;6.292;2022-07-23T00:31:08;1.25;;;0.40;;
44536;SDS011;30245;51.966;6.292;2022-07-23T00:33:34;1.52;;;0.73;;
44536;SDS011;30245;51.966;6.292;2022-07-23T00:36:00;1.55;;;0.88;;
44536;SDS011;30245;51.966;6.292;2022-07-23T00:38:26;1.13;;;0.30;;
44536;SDS011;30245;51.966;6.292;2022-07-23T00:40:51;1.05;;;0.60;;
44536;SDS011;30245;51.966;6.292;2022-07-23T00:43:19;0.70;;;0.40;;
44536;SDS011;30245;51.966;6.292;2022-07-23T00:45:46;3.95;;;0.68;;
44536;SDS011;30245;51.966;6.292;2022-07-23T00:48:11;0.98;;;0.47;;
44536;SDS011;30245;51.966;6.292;2022-07-23T00:50:37;2.88;;;0.50;;
44536;SDS011;30245;51.966;6.292;2022-07-23T00:53:03;1.60;;;0.70;;
44536;SDS011;30245;51.966;6.292;2022-07-23T00:55:29;1.60;;;0.60;;
44536;SDS011;30245;51.966;6.292;2022-07-23T00:57:55;2.00;;;0.63;;
44536;SDS011;30245;51.966;6.292;2022-07-23T01:00:22;2.28;;;0.70;;
44536;SDS011;30245;51.966;6.292;2022-07-23T01:02:47;1.00;;;0.50;;
44536;SDS011;30245;51.966;6.292;2022-07-23T01:05:13;1.20;;;0.55;;
44536;SDS011;30245;51.966;6.292;2022-07-23T01:07:40;2.17;;;0.60;;
44536;SDS011;30245;51.966;6.292;2022-07-23T01:10:07;1.52;;;0.70;;
44536;SDS011;30245;51.966;6.292;2022-07-23T01:12:53;4.10;;;0.68;;
44536;SDS011;30245;51.966;6.292;2022-07-23T01:15:19;1.77;;;0.60;;
44536;SDS011;30245;51.966;6.292;2022-07-23T01:17:45;1.58;;;0.70;;
44536;SDS011;30245;51.966;6.292;2022-07-23T01:20:10;1.25;;;0.70;;
44536;SDS011;30245;51.966;6.292;2022-07-23T01:22:36;2.85;;;0.70;;
44536;SDS011;30245;51.966;6.292;2022-07-23T01:25:02;1.75;;;0.65;;
44536;SDS011;30245;51.966;6.292;2022-07-23T01:27:27;1.27;;;0.60;;
44536;SDS011;30245;51.966;6.292;2022-07-23T01:29:54;1.83;;;0.63;;
44536;SDS011;30245;51.966;6.292;2022-07-23T01:34:47;1.25;;;0.55;;
44536;SDS011;30245;51.966;6.292;2022-07-23T01:37:13;2.35;;;0.70;;
44536;SDS011;30245;51.966;6.292;2022-07-23T01:39:38;1.10;;;0.70;;
44536;SDS011;30245;51.966;6.292;2022-07-23T01:42:04;3.65;;;0.80;;
44536;SDS011;30245;51.966;6.292;2022-07-23T01:44:30;2.25;;;0.60;;
44536;SDS011;30245;51.966;6.292;2022-07-23T01:46:56;2.03;;;0.93;;
44536;SDS011;30245;51.966;6.292;2022-07-23T01:49:22;1.85;;;0.60;;
44536;SDS011;30245;51.966;6.292;2022-07-23T01:51:47;1.70;;;0.70;;
44536;SDS011;30245;51.966;6.292;2022-07-23T01:54:29;1.52;;;0.75;;
44536;SDS011;30245;51.966;6.292;2022-07-23T01:56:55;2.40;;;2.20;;
44536;SDS011;30245;51.966;6.292;2022-07-23T01:59:22;8.18;;;5.95;;
44536;SDS011;30245;51.966;6.292;2022-07-23T02:01:48;4.68;;;4.28;;
44536;SDS011;30245;51.966;6.292;2022-07-23T02:04:17;2.20;;;2.00;;
44536;SDS011;30245;51.966;6.292;2022-07-23T02:06:43;4.43;;;1.73;;
44536;SDS011;30245;51.966;6.292;2022-07-23T02:09:09;2.38;;;1.25;;
44536;SDS011;30245;51.966;6.292;2022-07-23T02:11:35;4.90;;;1.17;;
44536;SDS011;30245;51.966;6.292;2022-07-23T02:14:00;1.42;;;1.20;;
44536;SDS011;30245;51.966;6.292;2022-07-23T02:16:26;1.15;;;1.05;;
44536;SDS011;30245;51.966;6.292;2022-07-23T02:18:52;1.10;;;0.70;;
44536;SDS011;30245;51.966;6.292;2022-07-23T02:21:17;1.63;;;1.17;;
44536;SDS011;30245;51.966;6.292;2022-07-23T02:23:43;1.13;;;0.60;;
44536;SDS011;30245;51.966;6.292;2022-07-23T02:26:08;2.45;;;0.63;;
44536;SDS011;30245;51.966;6.292;2022-07-23T02:28:34;1.95;;;0.50;;
44536;SDS011;30245;51.966;6.292;2022-07-23T02:31:00;3.00;;;1.00;;
44536;SDS011;30245;51.966;6.292;2022-07-23T02:33:25;1.63;;;0.63;;
44536;SDS011;30245;51.966;6.292;2022-07-23T02:35:51;2.85;;;0.60;;
44536;SDS011;30245;51.966;6.292;2022-07-23T02:38:17;1.55;;;0.70;;
44536;SDS011;30245;51.966;6.292;2022-07-23T02:40:42;2.30;;;0.80;;
44536;SDS011;30245;51.966;6.292;2022-07-23T02:43:08;3.97;;;1.00;;
44536;SDS011;30245;51.966;6.292;2022-07-23T02:45:34;1.92;;;1.13;;
44536;SDS011;30245;51.966;6.292;2022-07-23T02:47:59;3.15;;;1.10;;
44536;SDS011;30245;51.966;6.292;2022-07-23T02:50:25;2.28;;;0.55;;
44536;SDS011;30245;51.966;6.292;2022-07-23T02:52:50;1.45;;;1.00;;
44536;SDS011;30245;51.966;6.292;2022-07-23T02:55:16;2.13;;;0.65;;
44536;SDS011;30245;51.966;6.292;2022-07-23T02:57:42;1.90;;;0.80;;
44536;SDS011;30245;51.966;6.292;2022-07-23T03:00:08;2.75;;;0.70;;
44536;SDS011;30245;51.966;6.292;2022-07-23T03:02:34;1.30;;;0.60;;
44536;SDS011;30245;51.966;6.292;2022-07-23T03:04:59;2.35;;;1.20;;
44536;SDS011;30245;51.966;6.292;2022-07-23T03:07:25;9.18;;;1.10;;
44536;SDS011;30245;51.966;6.292;2022-07-23T03:09:51;1.17;;;0.70;;
44536;SDS011;30245;51.966;6.292;2022-07-23T03:12:16;2.03;;;0.63;;
44536;SDS011;30245;51.966;6.292;2022-07-23T03:14:42;3.38;;;0.95;;
44536;SDS011;30245;51.966;6.292;2022-07-23T03:17:08;4.68;;;1.10;;
44536;SDS011;30245;51.966;6.292;2022-07-23T03:19:34;4.50;;;1.33;;
44536;SDS011;30245;51.966;6.292;2022-07-23T03:22:01;2.00;;;0.93;;
44536;SDS011;30245;51.966;6.292;2022-07-23T03:24:27;2.28;;;1.45;;
44536;SDS011;30245;51.966;6.292;2022-07-23T03:27:11;4.15;;;0.70;;
44536;SDS011;30245;51.966;6.292;2022-07-23T03:29:37;2.47;;;1.02;;
44536;SDS011;30245;51.966;6.292;2022-07-23T03:32:03;4.55;;;0.88;;
44536;SDS011;30245;51.966;6.292;2022-07-23T03:34:29;1.50;;;0.90;;
44536;SDS011;30245;51.966;6.292;2022-07-23T03:36:55;1.45;;;0.77;;
44536;SDS011;30245;51.966;6.292;2022-07-23T03:39:20;1.20;;;0.80;;
44536;SDS011;30245;51.966;6.292;2022-07-23T03:41:46;1.50;;;0.90;;
44536;SDS011;30245;51.966;6.292;2022-07-23T03:44:12;1.33;;;0.80;;
44536;SDS011;30245;51.966;6.292;2022-07-23T03:46:37;2.95;;;1.40;;
44536;SDS011;30245;51.966;6.292;2022-07-23T03:49:03;1.88;;;1.00;;
44536;SDS011;30245;51.966;6.292;2022-07-23T03:51:29;2.38;;;0.95;;
44536;SDS011;30245;51.966;6.292;2022-07-23T03:53:54;1.35;;;0.90;;
44536;SDS011;30245;51.966;6.292;2022-07-23T03:56:20;3.17;;;1.10;;
44536;SDS011;30245;51.966;6.292;2022-07-23T03:58:46;1.70;;;1.17;;
44536;SDS011;30245;51.966;6.292;2022-07-23T04:01:12;2.47;;;1.17;;
44536;SDS011;30245;51.966;6.292;2022-07-23T04:03:38;1.75;;;1.25;;
44536;SDS011;30245;51.966;6.292;2022-07-23T04:06:04;2.20;;;1.00;;
44536;SDS011;30245;51.966;6.292;2022-07-23T04:08:30;1.80;;;1.20;;
44536;SDS011;30245;51.966;6.292;2022-07-23T04:10:56;2.55;;;2.05;;
44536;SDS011;30245;51.966;6.292;2022-07-23T04:13:22;3.90;;;1.13;;
44536;SDS011;30245;51.966;6.292;2022-07-23T04:15:47;1.65;;;1.33;;
44536;SDS011;30245;51.966;6.292;2022-07-23T04:18:13;3.53;;;1.52;;
44536;SDS011;30245;51.966;6.292;2022-07-23T04:20:42;17.88;;;1.98;;
44536;SDS011;30245;51.966;6.292;2022-07-23T04:23:10;1.40;;;1.05;;
44536;SDS011;30245;51.966;6.292;2022-07-23T04:25:35;1.80;;;1.02;;
44536;SDS011;30245;51.966;6.292;2022-07-23T04:28:01;2.55;;;1.58;;
44536;SDS011;30245;51.966;6.292;2022-07-23T04:30:27;4.65;;;1.63;;
44536;SDS011;30245;51.966;6.292;2022-07-23T04:32:53;8.20;;;1.58;;
44536;SDS011;30245;51.966;6.292;2022-07-23T04:35:18;3.70;;;1.58;;
44536;SDS011;30245;51.966;6.292;2022-07-23T04:37:44;4.82;;;1.25;;
44536;SDS011;30245;51.966;6.292;2022-07-23T04:40:10;2.20;;;1.88;;
44536;SDS011;30245;51.966;6.292;2022-07-23T04:42:37;2.88;;;2.30;;
44536;SDS011;30245;51.966;6.292;2022-07-23T04:45:04;2.00;;;1.80;;
44536;SDS011;30245;51.966;6.292;2022-07-23T04:47:30;2.85;;;1.65;;
44536;SDS011;30245;51.966;6.292;2022-07-23T04:49:56;2.65;;;1.73;;
44536;SDS011;30245;51.966;6.292;2022-07-23T04:52:22;4.75;;;2.03;;
44536;SDS011;30245;51.966;6.292;2022-07-23T04:54:48;2.58;;;1.60;;
44536;SDS011;30245;51.966;6.292;2022-07-23T04:57:14;3.22;;;1.63;;
44536;SDS011;30245;51.966;6.292;2022-07-23T04:59:40;2.05;;;1.60;;
44536;SDS011;30245;51.966;6.292;2022-07-23T05:02:06;2.90;;;2.00;;
44536;SDS011;30245;51.966;6.292;2022-07-23T05:04:31;1.30;;;1.20;;
44536;SDS011;30245;51.966;6.292;2022-07-23T05:06:57;4.00;;;2.35;;
44536;SDS011;30245;51.966;6.292;2022-07-23T05:09:23;3.40;;;1.73;;
44536;SDS011;30245;51.966;6.292;2022-07-23T05:11:49;2.83;;;1.33;;
44536;SDS011;30245;51.966;6.292;2022-07-23T05:14:14;2.55;;;1.55;;
44536;SDS011;30245;51.966;6.292;2022-07-23T05:16:40;2.80;;;1.10;;
44536;SDS011;30245;51.966;6.292;2022-07-23T05:19:06;2.15;;;1.23;;
44536;SDS011;30245;51.966;6.292;2022-07-23T05:21:31;1.50;;;1.30;;
44536;SDS011;30245;51.966;6.292;2022-07-23T05:23:57;2.60;;;1.73;;
44536;SDS011;30245;51.966;6.292;2022-07-23T05:26:23;3.72;;;2.05;;
44536;SDS011;30245;51.966;6.292;2022-07-23T05:28:49;2.00;;;1.35;;
44536;SDS011;30245;51.966;6.292;2022-07-23T05:31:15;1.75;;;1.33;;
44536;SDS011;30245;51.966;6.292;2022-07-23T05:33:41;2.67;;;1.02;;
44536;SDS011;30245;51.966;6.292;2022-07-23T05:36:06;2.97;;;1.40;;
44536;SDS011;30245;51.966;6.292;2022-07-23T05:38:32;2.28;;;1.10;;
44536;SDS011;30245;51.966;6.292;2022-07-23T05:40:58;2.05;;;1.30;;
44536;SDS011;30245;51.966;6.292;2022-07-23T05:43:24;2.53;;;1.05;;
44536;SDS011;30245;51.966;6.292;2022-07-23T05:45:50;2.75;;;0.93;;
44536;SDS011;30245;51.966;6.292;2022-07-23T05:48:16;1.80;;;1.25;;
44536;SDS011;30245;51.966;6.292;2022-07-23T05:50:42;2.53;;;1.00;;
44536;SDS011;30245;51.966;6.292;2022-07-23T05:53:08;2.30;;;0.90;;
44536;SDS011;30245;51.966;6.292;2022-07-23T05:55:33;2.75;;;0.80;;
44536;SDS011;30245;51.966;6.292;2022-07-23T05:57:59;2.33;;;1.02;;
44536;SDS011;30245;51.966;6.292;2022-07-23T06:00:25;1.77;;;1.00;;
44536;SDS011;30245;51.966;6.292;2022-07-23T06:02:52;2.65;;;1.33;;
44536;SDS011;30245;51.966;6.292;2022-07-23T06:05:17;1.23;;;0.98;;
44536;SDS011;30245;51.966;6.292;2022-07-23T06:07:43;1.83;;;0.82;;
44536;SDS011;30245;51.966;6.292;2022-07-23T06:10:09;2.58;;;0.68;;
44536;SDS011;30245;51.966;6.292;2022-07-23T06:12:35;2.53;;;1.10;;
44536;SDS011;30245;51.966;6.292;2022-07-23T06:15:01;1.02;;;0.63;;
44536;SDS011;30245;51.966;6.292;2022-07-23T06:17:27;1.35;;;0.40;;
44536;SDS011;30245;51.966;6.292;2022-07-23T06:19:54;2.33;;;0.60;;
44536;SDS011;30245;51.966;6.292;2022-07-23T06:22:20;0.88;;;0.60;;
44536;SDS011;30245;51.966;6.292;2022-07-23T06:24:46;1.38;;;0.90;;
44536;SDS011;30245;51.966;6.292;2022-07-23T06:27:12;0.88;;;0.60;;
44536;SDS011;30245;51.966;6.292;2022-07-23T06:29:37;1.23;;;0.50;;
44536;SDS011;30245;51.966;6.292;2022-07-23T06:32:03;1.30;;;0.73;;
44536;SDS011;30245;51.966;6.292;2022-07-23T06:34:29;5.57;;;0.52;;
44536;SDS011;30245;51.966;6.292;2022-07-23T06:36:55;3.30;;;0.85;;
44536;SDS011;30245;51.966;6.292;2022-07-23T06:39:20;1.55;;;0.75;;
44536;SDS011;30245;51.966;6.292;2022-07-23T06:41:46;4.05;;;0.60;;
44536;SDS011;30245;51.966;6.292;2022-07-23T06:44:12;0.82;;;0.40;;
44536;SDS011;30245;51.966;6.292;2022-07-23T06:46:37;1.42;;;0.50;;
44536;SDS011;30245;51.966;6.292;2022-07-23T06:49:03;0.88;;;0.50;;
44536;SDS011;30245;51.966;6.292;2022-07-23T06:51:29;1.00;;;0.77;;
44536;SDS011;30245;51.966;6.292;2022-07-23T06:53:55;1.20;;;0.63;;
44536;SDS011;30245;51.966;6.292;2022-07-23T06:56:21;2.63;;;0.82;;
44536;SDS011;30245;51.966;6.292;2022-07-23T06:58:47;3.30;;;0.63;;
44536;SDS011;30245;51.966;6.292;2022-07-23T07:01:13;1.48;;;0.70;;
44536;SDS011;30245;51.966;6.292;2022-07-23T07:03:38;1.23;;;0.60;;
44536;SDS011;30245;51.966;6.292;2022-07-23T07:06:04;1.00;;;0.40;;
44536;SDS011;30245;51.966;6.292;2022-07-23T07:08:30;1.70;;;0.40;;
44536;SDS011;30245;51.966;6.292;2022-07-23T07:10:55;2.03;;;0.50;;
44536;SDS011;30245;51.966;6.292;2022-07-23T07:13:21;0.73;;;0.32;;
44536;SDS011;30245;51.966;6.292;2022-07-23T07:15:46;1.10;;;0.55;;
44536;SDS011;30245;51.966;6.292;2022-07-23T07:18:12;1.25;;;0.43;;
44536;SDS011;30245;51.966;6.292;2022-07-23T07:20:38;2.45;;;0.50;;
44536;SDS011;30245;51.966;6.292;2022-07-23T07:23:03;1.02;;;0.40;;
44536;SDS011;30245;51.966;6.292;2022-07-23T07:25:29;1.00;;;0.47;;
44536;SDS011;30245;51.966;6.292;2022-07-23T07:27:55;0.75;;;0.40;;
44536;SDS011;30245;51.966;6.292;2022-07-23T07:30:20;0.90;;;0.30;;
44536;SDS011;30245;51.966;6.292;2022-07-23T07:32:46;1.83;;;0.30;;
44536;SDS011;30245;51.966;6.292;2022-07-23T07:35:12;1.25;;;0.30;;
44536;SDS011;30245;51.966;6.292;2022-07-23T07:37:37;0.63;;;0.20;;
44536;SDS011;30245;51.966;6.292;2022-07-23T07:40:03;0.90;;;0.30;;
44536;SDS011;30245;51.966;6.292;2022-07-23T07:42:29;2.72;;;1.45;;
44536;SDS011;30245;51.966;6.292;2022-07-23T07:44:55;0.80;;;0.28;;
44536;SDS011;30245;51.966;6.292;2022-07-23T07:47:21;2.70;;;0.40;;
44536;SDS011;30245;51.966;6.292;2022-07-23T07:49:46;1.35;;;0.65;;
44536;SDS011;30245;51.966;6.292;2022-07-23T07:52:12;2.35;;;0.77;;
44536;SDS011;30245;51.966;6.292;2022-07-23T07:54:37;3.83;;;0.50;;
44536;SDS011;30245;51.966;6.292;2022-07-23T07:57:03;0.90;;;0.30;;
44536;SDS011;30245;51.966;6.292;2022-07-23T07:59:29;0.90;;;0.20;;
44536;SDS011;30245;51.966;6.292;2022-07-23T08:01:54;0.93;;;0.30;;
44536;SDS011;30245;51.966;6.292;2022-07-23T08:04:20;1.30;;;0.22;;
44536;SDS011;30245;51.966;6.292;2022-07-23T08:06:46;1.23;;;0.28;;
44536;SDS011;30245;51.966;6.292;2022-07-23T08:09:12;1.65;;;0.30;;
44536;SDS011;30245;51.966;6.292;2022-07-23T08:11:37;0.50;;;0.30;;
44536;SDS011;30245;51.966;6.292;2022-07-23T08:14:03;0.60;;;0.20;;
44536;SDS011;30245;51.966;6.292;2022-07-23T08:16:29;1.25;;;0.20;;
44536;SDS011;30245;51.966;6.292;2022-07-23T08:18:54;0.80;;;0.20;;
44536;SDS011;30245;51.966;6.292;2022-07-23T08:21:20;2.03;;;0.38;;
44536;SDS011;30245;51.966;6.292;2022-07-23T08:23:46;2.13;;;0.43;;
44536;SDS011;30245;51.966;6.292;2022-07-23T08:26:11;1.48;;;0.20;;
44536;SDS011;30245;51.966;6.292;2022-07-23T08:28:37;0.73;;;0.20;;
44536;SDS011;30245;51.966;6.292;2022-07-23T08:31:03;1.85;;;0.32;;
44536;SDS011;30245;51.966;6.292;2022-07-23T08:33:30;1.05;;;0.30;;
44536;SDS011;30245;51.966;6.292;2022-07-23T08:35:57;3.88;;;1.10;;
44536;SDS011;30245;51.966;6.292;2022-07-23T08:38:23;0.65;;;0.30;;
44536;SDS011;30245;51.966;6.292;2022-07-23T08:40:51;1.38;;;0.40;;
44536;SDS011;30245;51.966;6.292;2022-07-23T08:43:19;2.60;;;0.20;;
44536;SDS011;30245;51.966;6.292;2022-07-23T08:45:47;1.75;;;0.20;;
44536;SDS011;30245;51.966;6.292;2022-07-23T08:48:15;0.53;;;0.23;;
44536;SDS011;30245;51.966;6.292;2022-07-23T08:50:44;1.25;;;0.20;;
44536;SDS011;30245;51.966;6.292;2022-07-23T08:53:11;0.65;;;0.17;;
44536;SDS011;30245;51.966;6.292;2022-07-23T08:55:37;1.23;;;0.20;;
44536;SDS011;30245;51.966;6.292;2022-07-23T08:58:03;1.90;;;0.20;;
44536;SDS011;30245;51.966;6.292;2022-07-23T09:00:30;2.20;;;0.20;;
44536;SDS011;30245;51.966;6.292;2022-07-23T09:02:57;0.73;;;0.20;;
44536;SDS011;30245;51.966;6.292;2022-07-23T09:05:22;0.68;;;0.20;;
44536;SDS011;30245;51.966;6.292;2022-07-23T09:13:24;1.15;;;0.43;;
44536;SDS011;30245;51.966;6.292;2022-07-23T09:16:02;0.95;;;0.20;;
44536;SDS011;30245;51.966;6.292;2022-07-23T09:18:40;0.85;;;0.10;;
44536;SDS011;30245;51.966;6.292;2022-07-23T09:21:13;0.83;;;0.20;;
44536;SDS011;30245;51.966;6.292;2022-07-23T09:23:41;2.15;;;0.20;;
44536;SDS011;30245;51.966;6.292;2022-07-23T09:26:17;0.40;;;0.30;;
44536;SDS011;30245;51.966;6.292;2022-07-23T09:28:50;1.25;;;0.35;;
44536;SDS011;30245;51.966;6.292;2022-07-23T09:31:19;0.50;;;0.20;;
44536;SDS011;30245;51.966;6.292;2022-07-23T09:33:45;0.70;;;0.25;;
44536;SDS011;30245;51.966;6.292;2022-07-23T09:36:11;0.40;;;0.10;;
44536;SDS011;30245;51.966;6.292;2022-07-23T09:38:47;1.83;;;0.28;;
44536;SDS011;30245;51.966;6.292;2022-07-23T09:41:14;0.47;;;0.20;;
44536;SDS011;30245;51.966;6.292;2022-07-23T09:43:40;0.40;;;0.20;;
44536;SDS011;30245;51.966;6.292;2022-07-23T09:48:53;0.30;;;0.20;;
44536;SDS011;30245;51.966;6.292;2022-07-23T09:51:22;0.57;;;0.40;;
44536;SDS011;30245;51.966;6.292;2022-07-23T09:54:03;1.67;;;0.40;;
44536;SDS011;30245;51.966;6.292;2022-07-23T09:56:29;1.02;;;0.30;;
44536;SDS011;30245;51.966;6.292;2022-07-23T09:58:58;2.30;;;0.45;;
44536;SDS011;30245;51.966;6.292;2022-07-23T10:01:36;0.40;;;0.10;;
44536;SDS011;30245;51.966;6.292;2022-07-23T10:04:03;0.50;;;0.30;;
44536;SDS011;30245;51.966;6.292;2022-07-23T10:06:30;0.93;;;0.40;;
44536;SDS011;30245;51.966;6.292;2022-07-23T10:08:57;0.32;;;0.10;;
44536;SDS011;30245;51.966;6.292;2022-07-23T10:11:24;0.63;;;0.10;;
44536;SDS011;30245;51.966;6.292;2022-07-23T10:13:53;0.57;;;0.20;;
44536;SDS011;30245;51.966;6.292;2022-07-23T10:16:27;1.65;;;0.20;;
44536;SDS011;30245;51.966;6.292;2022-07-23T10:18:53;2.33;;;0.52;;
44536;SDS011;30245;51.966;6.292;2022-07-23T10:21:36;0.60;;;0.20;;
44536;SDS011;30245;51.966;6.292;2022-07-23T10:29:23;2.00;;;0.50;;
44536;SDS011;30245;51.966;6.292;2022-07-23T10:31:58;0.55;;;0.10;;
44536;SDS011;30245;51.966;6.292;2022-07-23T10:37:32;0.38;;;0.20;;
44536;SDS011;30245;51.966;6.292;2022-07-23T10:40:08;0.90;;;0.30;;
44536;SDS011;30245;51.966;6.292;2022-07-23T10:42:35;1.33;;;0.38;;
44536;SDS011;30245;51.966;6.292;2022-07-23T10:45:01;1.13;;;0.30;;
44536;SDS011;30245;51.966;6.292;2022-07-23T10:47:47;0.52;;;0.20;;
44536;SDS011;30245;51.966;6.292;2022-07-23T10:50:28;0.88;;;0.20;;
44536;SDS011;30245;51.966;6.292;2022-07-23T10:57:57;1.63;;;0.20;;
44536;SDS011;30245;51.966;6.292;2022-07-23T11:00:25;0.70;;;0.20;;
44536;SDS011;30245;51.966;6.292;2022-07-23T11:02:57;0.30;;;0.20;;
44536;SDS011;30245;51.966;6.292;2022-07-23T11:05:26;0.90;;;0.25;;
44536;SDS011;30245;51.966;6.292;2022-07-23T11:10:34;1.35;;;0.20;;
44536;SDS011;30245;51.966;6.292;2022-07-23T11:32:18;0.70;;;0.30;;
44536;SDS011;30245;51.966;6.292;2022-07-23T11:34:45;0.98;;;0.20;;
44536;SDS011;30245;51.966;6.292;2022-07-23T11:37:12;0.77;;;0.30;;
44536;SDS011;30245;51.966;6.292;2022-07-23T11:40:02;0.75;;;0.10;;
44536;SDS011;30245;51.966;6.292;2022-07-23T11:42:34;0.40;;;0.10;;
44536;SDS011;30245;51.966;6.292;2022-07-23T11:47:27;1.08;;;0.20;;
44536;SDS011;30245;51.966;6.292;2022-07-23T11:49:57;0.55;;;0.20;;
44536;SDS011;30245;51.966;6.292;2022-07-23T11:52:24;0.30;;;0.20;;
44536;SDS011;30245;51.966;6.292;2022-07-23T11:54:59;0.65;;;0.20;;
44536;SDS011;30245;51.966;6.292;2022-07-23T11:57:35;1.23;;;0.17;;
44536;SDS011;30245;51.966;6.292;2022-07-23T12:00:13;0.80;;;0.10;;
44536;SDS011;30245;51.966;6.292;2022-07-23T12:02:44;0.88;;;0.20;;
44536;SDS011;30245;51.966;6.292;2022-07-23T12:05:16;0.70;;;0.30;;
44536;SDS011;30245;51.966;6.292;2022-07-23T12:07:44;1.73;;;0.20;;
44536;SDS011;30245;51.966;6.292;2022-07-23T12:10:18;0.70;;;0.30;;
44536;SDS011;30245;51.966;6.292;2022-07-23T12:12:56;0.85;;;0.22;;
44536;SDS011;30245;51.966;6.292;2022-07-23T12:17:51;0.80;;;0.25;;
44536;SDS011;30245;51.966;6.292;2022-07-23T12:20:21;0.95;;;0.20;;
44536;SDS011;30245;51.966;6.292;2022-07-23T12:22:50;1.65;;;0.50;;
44536;SDS011;30245;51.966;6.292;2022-07-23T12:25:18;1.33;;;0.10;;
44536;SDS011;30245;51.966;6.292;2022-07-23T12:27:46;1.95;;;0.20;;
44536;SDS011;30245;51.966;6.292;2022-07-23T12:30:27;0.88;;;0.20;;
44536;SDS011;30245;51.966;6.292;2022-07-23T12:32:58;0.95;;;0.20;;
44536;SDS011;30245;51.966;6.292;2022-07-23T12:35:29;0.85;;;0.10;;
44536;SDS011;30245;51.966;6.292;2022-07-23T12:37:59;12.35;;;0.35;;
44536;SDS011;30245;51.966;6.292;2022-07-23T12:43:39;1.05;;;0.45;;
44536;SDS011;30245;51.966;6.292;2022-07-23T12:48:19;1.13;;;0.20;;
44536;SDS011;30245;51.966;6.292;2022-07-23T12:53:28;0.68;;;0.20;;
44536;SDS011;30245;51.966;6.292;2022-07-23T12:55:58;0.40;;;0.22;;
44536;SDS011;30245;51.966;6.292;2022-07-23T12:58:38;0.82;;;0.20;;
44536;SDS011;30245;51.966;6.292;2022-07-23T13:03:53;0.40;;;0.30;;
44536;SDS011;30245;51.966;6.292;2022-07-23T13:06:23;0.43;;;0.20;;
44536;SDS011;30245;51.966;6.292;2022-07-23T13:08:49;0.77;;;0.20;;
44536;SDS011;30245;51.966;6.292;2022-07-23T13:11:15;0.63;;;0.20;;
44536;SDS011;30245;51.966;6.292;2022-07-23T13:13:41;0.63;;;0.20;;
44536;SDS011;30245;51.966;6.292;2022-07-23T13:16:06;0.50;;;0.20;;
44536;SDS011;30245;51.966;6.292;2022-07-23T13:18:32;0.40;;;0.10;;
44536;SDS011;30245;51.966;6.292;2022-07-23T13:20:58;1.67;;;0.20;;
44536;SDS011;30245;51.966;6.292;2022-07-23T13:23:24;2.17;;;0.40;;
44536;SDS011;30245;51.966;6.292;2022-07-23T13:25:51;0.65;;;0.30;;
44536;SDS011;30245;51.966;6.292;2022-07-23T13:28:17;0.90;;;0.38;;
44536;SDS011;30245;51.966;6.292;2022-07-23T13:30:44;0.75;;;0.30;;
44536;SDS011;30245;51.966;6.292;2022-07-23T13:33:12;0.50;;;0.28;;
44536;SDS011;30245;51.966;6.292;2022-07-23T13:35:38;0.80;;;0.30;;
44536;SDS011;30245;51.966;6.292;2022-07-23T13:38:04;1.77;;;0.40;;
44536;SDS011;30245;51.966;6.292;2022-07-23T13:40:33;0.50;;;0.10;;
44536;SDS011;30245;51.966;6.292;2022-07-23T13:43:00;0.75;;;0.20;;
44536;SDS011;30245;51.966;6.292;2022-07-23T13:45:26;2.55;;;0.20;;
44536;SDS011;30245;51.966;6.292;2022-07-23T13:47:51;0.65;;;0.20;;
44536;SDS011;30245;51.966;6.292;2022-07-23T13:50:18;1.02;;;0.10;;
44536;SDS011;30245;51.966;6.292;2022-07-23T13:52:43;0.70;;;0.20;;
44536;SDS011;30245;51.966;6.292;2022-07-23T13:55:09;1.00;;;0.20;;
44536;SDS011;30245;51.966;6.292;2022-07-23T13:57:36;1.13;;;0.30;;
44536;SDS011;30245;51.966;6.292;2022-07-23T14:00:02;0.80;;;0.20;;
44536;SDS011;30245;51.966;6.292;2022-07-23T14:02:32;0.40;;;0.20;;
44536;SDS011;30245;51.966;6.292;2022-07-23T14:04:57;1.15;;;0.30;;
44536;SDS011;30245;51.966;6.292;2022-07-23T14:07:23;0.45;;;0.20;;
44536;SDS011;30245;51.966;6.292;2022-07-23T14:09:49;1.00;;;0.20;;
44536;SDS011;30245;51.966;6.292;2022-07-23T14:12:14;0.85;;;0.20;;
44536;SDS011;30245;51.966;6.292;2022-07-23T14:14:40;0.57;;;0.10;;
44536;SDS011;30245;51.966;6.292;2022-07-23T14:17:07;0.57;;;0.20;;
44536;SDS011;30245;51.966;6.292;2022-07-23T14:19:32;1.55;;;0.20;;
44536;SDS011;30245;51.966;6.292;2022-07-23T14:21:59;0.90;;;0.30;;
44536;SDS011;30245;51.966;6.292;2022-07-23T14:24:24;0.47;;;0.20;;
44536;SDS011;30245;51.966;6.292;2022-07-23T14:26:50;0.60;;;0.20;;
44536;SDS011;30245;51.966;6.292;2022-07-23T14:29:16;0.57;;;0.20;;
44536;SDS011;30245;51.966;6.292;2022-07-23T14:31:41;0.88;;;0.20;;
44536;SDS011;30245;51.966;6.292;2022-07-23T14:34:07;1.60;;;0.40;;
44536;SDS011;30245;51.966;6.292;2022-07-23T14:36:33;1.33;;;0.30;;
44536;SDS011;30245;51.966;6.292;2022-07-23T14:38:58;1.10;;;0.50;;
44536;SDS011;30245;51.966;6.292;2022-07-23T14:41:25;1.33;;;0.50;;
44536;SDS011;30245;51.966;6.292;2022-07-23T14:43:50;1.20;;;0.52;;
44536;SDS011;30245;51.966;6.292;2022-07-23T14:46:16;1.23;;;0.50;;
44536;SDS011;30245;51.966;6.292;2022-07-23T14:48:41;0.52;;;0.30;;
44536;SDS011;30245;51.966;6.292;2022-07-23T14:51:07;0.57;;;0.28;;
44536;SDS011;30245;51.966;6.292;2022-07-23T14:53:33;5.20;;;0.60;;
44536;SDS011;30245;51.966;6.292;2022-07-23T14:55:58;0.60;;;0.50;;
44536;SDS011;30245;51.966;6.292;2022-07-23T14:58:24;1.20;;;0.40;;
44536;SDS011;30245;51.966;6.292;2022-07-23T15:00:50;0.50;;;0.25;;
44536;SDS011;30245;51.966;6.292;2022-07-23T15:03:16;2.05;;;0.20;;
44536;SDS011;30245;51.966;6.292;2022-07-23T15:05:42;0.50;;;0.20;;
44536;SDS011;30245;51.966;6.292;2022-07-23T15:08:08;1.23;;;0.25;;
44536;SDS011;30245;51.966;6.292;2022-07-23T15:10:34;0.60;;;0.30;;
44536;SDS011;30245;51.966;6.292;2022-07-23T15:13:00;0.98;;;0.40;;
44536;SDS011;30245;51.966;6.292;2022-07-23T15:15:25;1.13;;;0.30;;
44536;SDS011;30245;51.966;6.292;2022-07-23T15:17:51;0.52;;;0.20;;
44536;SDS011;30245;51.966;6.292;2022-07-23T15:20:17;1.13;;;0.30;;
44536;SDS011;30245;51.966;6.292;2022-07-23T15:22:42;0.60;;;0.30;;
44536;SDS011;30245;51.966;6.292;2022-07-23T15:25:10;0.40;;;0.10;;
44536;SDS011;30245;51.966;6.292;2022-07-23T15:27:36;0.82;;;0.40;;
44536;SDS011;30245;51.966;6.292;2022-07-23T15:30:02;0.50;;;0.30;;
44536;SDS011;30245;51.966;6.292;2022-07-23T15:32:29;0.45;;;0.20;;
44536;SDS011;30245;51.966;6.292;2022-07-23T15:34:54;0.95;;;0.43;;
44536;SDS011;30245;51.966;6.292;2022-07-23T15:37:20;0.80;;;0.30;;
44536;SDS011;30245;51.966;6.292;2022-07-23T15:39:48;1.13;;;0.30;;
44536;SDS011;30245;51.966;6.292;2022-07-23T15:42:14;0.65;;;0.30;;
44536;SDS011;30245;51.966;6.292;2022-07-23T15:44:39;0.47;;;0.30;;
44536;SDS011;30245;51.966;6.292;2022-07-23T15:47:06;1.23;;;0.30;;
44536;SDS011;30245;51.966;6.292;2022-07-23T15:49:37;1.10;;;0.55;;